Time;durP1;ratioP1;P1;durP2;ratioP2;P2;SDS_P1;SDS_P2;PMS_P1;PMS_P2;Temp;Humidity;BMP_temperature;BMP_pressure;BME280_temperature;BME280_humidity;BME280_pressure;Samples;Min_cycle;Max_cycle;Signal;HPM_P1;HPM_P2
2023/09/05 00:01:57;;;;;;;3.20;2.70;;;19.20;52.90;;;;;;5107931;27;20407;-61
2023/09/05 00:04:22;;;;;;;3.90;2.75;;;19.20;53.20;;;;;;5105106;28;20024;-61
2023/09/05 00:06:48;;;;;;;3.60;2.63;;;19.20;53.50;;;;;;5106531;27;20055;-61
2023/09/05 00:09:16;;;;;;;3.95;2.55;;;19.10;53.50;;;;;;5083610;28;20055;-61
2023/09/05 00:11:42;;;;;;;3.85;2.67;;;19.00;53.50;;;;;;5091560;28;20463;-61
2023/09/05 00:14:09;;;;;;;2.90;2.60;;;19.00;53.70;;;;;;5087181;28;20074;-61
2023/09/05 00:16:35;;;;;;;2.75;2.30;;;19.00;53.60;;;;;;5091703;28;20024;-61
2023/09/05 00:19:00;;;;;;;3.72;2.75;;;18.90;53.60;;;;;;5082917;28;20039;-60
2023/09/05 00:21:26;;;;;;;3.35;2.40;;;18.90;53.60;;;;;;5095905;28;20055;-60
2023/09/05 00:23:52;;;;;;;6.03;2.50;;;18.80;53.50;;;;;;5095537;28;20055;-61
2023/09/05 00:26:17;;;;;;;3.78;2.65;;;18.80;53.70;;;;;;5086771;28;20028;-61
2023/09/05 00:28:43;;;;;;;3.42;2.63;;;18.80;53.70;;;;;;5085324;28;20486;-60
2023/09/05 00:31:14;;;;;;;3.72;2.42;;;18.80;53.70;;;;;;5065570;28;20036;-61
2023/09/05 00:33:39;;;;;;;2.92;2.35;;;18.80;53.70;;;;;;5080497;28;20025;-61
2023/09/05 00:36:05;;;;;;;3.33;2.50;;;18.80;53.70;;;;;;5087672;28;20031;-62
2023/09/05 00:38:33;;;;;;;5.50;2.53;;;18.80;53.80;;;;;;5082464;28;20099;-61
2023/09/05 00:41:02;;;;;;;8.35;2.38;;;18.70;53.90;;;;;;5092357;28;20074;-62
2023/09/05 00:43:27;;;;;;;4.82;2.60;;;18.70;53.90;;;;;;5088447;28;20490;-62
2023/09/05 00:45:55;;;;;;;2.67;2.20;;;18.70;53.90;;;;;;5087170;28;20067;-61
2023/09/05 00:48:27;;;;;;;5.45;2.42;;;18.60;54.10;;;;;;5090168;28;20030;-62
2023/09/05 00:50:56;;;;;;;3.55;2.15;;;18.60;54.10;;;;;;5091473;28;20024;-61
2023/09/05 00:53:26;;;;;;;4.53;2.78;;;18.60;54.30;;;;;;5085234;28;20020;-61
2023/09/05 00:55:52;;;;;;;3.40;2.60;;;18.50;54.20;;;;;;5086284;28;20081;-61
2023/09/05 00:58:19;;;;;;;3.95;2.40;;;18.50;54.30;;;;;;5085161;28;20366;-61
2023/09/05 01:00:45;;;;;;;2.88;2.25;;;18.50;54.40;;;;;;5077726;28;20065;-61
2023/09/05 01:03:10;;;;;;;3.25;2.47;;;18.40;54.50;;;;;;5090929;28;20031;-61
2023/09/05 01:05:39;;;;;;;5.05;2.33;;;18.40;54.60;;;;;;5084569;28;20130;-60
2023/09/05 01:08:25;;;;;;;3.20;2.20;;;18.40;54.50;;;;;;5082218;28;20463;-61
2023/09/05 01:11:00;;;;;;;4.38;2.67;;;18.40;54.70;;;;;;5058360;28;20158;-61
2023/09/05 01:13:27;;;;;;;4.35;2.92;;;18.30;54.90;;;;;;5085601;28;20486;-61
2023/09/05 01:15:53;;;;;;;4.43;2.40;;;18.30;54.90;;;;;;5083385;28;20040;-61
2023/09/05 01:18:20;;;;;;;3.40;2.35;;;18.20;55.00;;;;;;5081900;28;20024;-62
2023/09/05 01:21:03;;;;;;;5.18;2.83;;;18.20;55.10;;;;;;5083926;28;20124;-62
2023/09/05 01:23:37;;;;;;;3.58;2.60;;;18.10;55.60;;;;;;5084635;28;20478;-61
2023/09/05 01:26:04;;;;;;;3.38;2.70;;;18.10;55.20;;;;;;5086451;28;20038;-61
2023/09/05 01:28:31;;;;;;;4.47;2.40;;;18.10;55.20;;;;;;5017305;28;20521;-61
2023/09/05 01:30:56;;;;;;;3.63;2.67;;;18.00;55.30;;;;;;5080494;28;20037;-62
2023/09/05 01:33:22;;;;;;;3.15;2.50;;;18.00;55.30;;;;;;5082419;28;20035;-63
2023/09/05 01:35:48;;;;;;;3.78;2.65;;;18.00;55.60;;;;;;5088201;28;20032;-62
2023/09/05 01:38:13;;;;;;;4.20;2.45;;;18.00;55.60;;;;;;5085238;28;20028;-62
2023/09/05 01:40:39;;;;;;;2.83;2.40;;;18.00;55.60;;;;;;5085448;28;20112;-61
2023/09/05 01:43:05;;;;;;;3.45;2.53;;;18.00;55.60;;;;;;5088774;28;20024;-61
2023/09/05 01:45:30;;;;;;;7.63;2.50;;;18.00;55.70;;;;;;5089003;28;20043;-61
2023/09/05 01:47:56;;;;;;;3.38;2.78;;;18.00;55.90;;;;;;5080400;28;20549;-60
2023/09/05 01:50:22;;;;;;;3.63;2.33;;;17.90;56.00;;;;;;5084438;28;20732;-62
2023/09/05 01:52:47;;;;;;;5.28;2.42;;;17.90;56.10;;;;;;5084859;28;20028;-61
2023/09/05 01:55:13;;;;;;;2.55;2.35;;;17.90;56.20;;;;;;5080531;28;20024;-61
2023/09/05 01:57:39;;;;;;;4.38;2.58;;;17.90;56.20;;;;;;5086496;28;20020;-61
2023/09/05 02:00:05;;;;;;;5.07;2.42;;;17.80;56.30;;;;;;5081038;28;20524;-61
2023/09/05 02:02:31;;;;;;;3.80;2.53;;;17.80;56.40;;;;;;5085051;28;20052;-61
2023/09/05 02:04:56;;;;;;;5.53;2.47;;;17.70;56.50;;;;;;5085855;28;20036;-61
2023/09/05 02:07:22;;;;;;;2.33;2.13;;;17.70;56.60;;;;;;5098141;27;20039;-61
2023/09/05 02:09:47;;;;;;;7.13;2.65;;;17.70;56.70;;;;;;5088611;28;20085;-61
2023/09/05 02:12:14;;;;;;;2.78;2.35;;;17.60;56.80;;;;;;5102375;28;20097;-61
2023/09/05 02:14:47;;;;;;;5.50;2.50;;;17.60;56.90;;;;;;5100176;28;20023;-61
2023/09/05 02:17:15;;;;;;;3.70;2.63;;;17.60;56.90;;;;;;5099499;28;20028;-60
2023/09/05 02:19:41;;;;;;;4.55;2.80;;;17.60;57.10;;;;;;5106969;28;20034;-60
2023/09/05 02:22:07;;;;;;;4.88;2.33;;;17.60;57.10;;;;;;5109649;28;20449;-62
2023/09/05 02:24:33;;;;;;;6.00;2.85;;;17.60;57.30;;;;;;5107592;28;20120;-63
2023/09/05 02:26:58;;;;;;;4.50;2.60;;;17.60;57.30;;;;;;5110214;28;20042;-61
2023/09/05 02:29:26;;;;;;;4.20;2.30;;;17.60;57.30;;;;;;5104626;28;20118;-62
2023/09/05 02:31:52;;;;;;;5.50;2.50;;;17.50;57.30;;;;;;5112378;28;20046;-60
2023/09/05 02:34:18;;;;;;;3.60;2.03;;;17.40;57.10;;;;;;5105190;28;20462;-61
2023/09/05 02:36:43;;;;;;;3.22;2.50;;;17.40;57.20;;;;;;5113495;28;20106;-61
2023/09/05 02:39:09;;;;;;;4.68;2.53;;;17.30;57.40;;;;;;5099559;28;20103;-62
2023/09/05 02:41:34;;;;;;;3.80;2.42;;;17.20;58.10;;;;;;5106910;28;20076;-61
2023/09/05 02:44:00;;;;;;;3.20;2.55;;;17.20;57.70;;;;;;5109740;28;20030;-62
2023/09/05 02:46:26;;;;;;;10.00;2.55;;;17.10;57.90;;;;;;5105755;28;20035;-61
2023/09/05 02:48:51;;;;;;;4.68;2.63;;;17.10;58.00;;;;;;5115173;28;20034;-62
2023/09/05 02:51:17;;;;;;;4.65;2.65;;;17.00;58.20;;;;;;5109610;28;20088;-62
2023/09/05 02:53:43;;;;;;;4.10;2.70;;;17.00;58.20;;;;;;5114628;28;20023;-61
2023/09/05 02:56:08;;;;;;;3.42;2.55;;;16.90;58.20;;;;;;5110253;28;20028;-62
2023/09/05 02:58:34;;;;;;;4.25;2.70;;;16.90;58.40;;;;;;5104105;28;20487;-61
2023/09/05 03:01:05;;;;;;;3.50;2.90;;;16.80;58.40;;;;;;5095720;28;20027;-60
2023/09/05 03:03:31;;;;;;;4.30;3.05;;;16.80;58.70;;;;;;5113677;28;20437;-61
2023/09/05 03:05:57;;;;;;;4.20;2.80;;;16.70;58.60;;;;;;5112606;28;20033;-61
2023/09/05 03:08:24;;;;;;;5.07;2.92;;;16.70;58.80;;;;;;5088250;28;20642;-62
2023/09/05 03:10:51;;;;;;;5.13;3.10;;;16.60;59.00;;;;;;5074095;28;20445;-61
2023/09/05 03:13:17;;;;;;;5.25;3.08;;;16.60;59.10;;;;;;5094079;28;20030;-63
2023/09/05 03:15:43;;;;;;;6.43;3.33;;;16.60;59.10;;;;;;5093235;28;20110;-61
2023/09/05 03:18:08;;;;;;;4.35;2.83;;;16.50;59.20;;;;;;5084693;28;20576;-61
2023/09/05 03:20:34;;;;;;;3.35;2.60;;;16.50;59.40;;;;;;5073337;28;20039;-60
2023/09/05 03:23:00;;;;;;;5.28;3.10;;;16.50;59.50;;;;;;5087022;28;20032;-60
2023/09/05 03:25:25;;;;;;;3.17;2.63;;;16.40;59.50;;;;;;5074571;28;20132;-61
2023/09/05 03:27:51;;;;;;;6.68;3.05;;;16.40;59.60;;;;;;5014088;28;20059;-61
2023/09/05 03:30:17;;;;;;;4.00;3.00;;;16.40;59.80;;;;;;5091867;28;20447;-61
2023/09/05 03:32:42;;;;;;;5.20;2.80;;;16.30;59.80;;;;;;5085296;28;20024;-62
2023/09/05 03:35:08;;;;;;;5.15;2.95;;;16.30;59.90;;;;;;5090245;28;20420;-61
2023/09/05 03:37:34;;;;;;;3.80;2.70;;;16.30;60.00;;;;;;5077721;28;20020;-60
2023/09/05 03:39:59;;;;;;;3.05;2.45;;;16.30;60.00;;;;;;5088992;28;20459;-61
2023/09/05 03:42:25;;;;;;;3.83;2.80;;;16.30;60.10;;;;;;5090036;28;20032;-61
2023/09/05 03:44:51;;;;;;;3.78;2.90;;;16.20;60.10;;;;;;5083646;28;20036;-62
2023/09/05 03:47:16;;;;;;;4.15;3.10;;;16.20;60.30;;;;;;5094913;28;20068;-60
2023/09/05 03:49:42;;;;;;;4.78;2.53;;;16.20;60.20;;;;;;5091785;28;20027;-61
2023/09/05 03:52:08;;;;;;;8.02;2.95;;;16.20;60.40;;;;;;5092811;28;20513;-61
2023/09/05 03:54:33;;;;;;;4.68;2.80;;;16.20;60.50;;;;;;5090264;28;20052;-61
2023/09/05 03:56:59;;;;;;;4.05;2.60;;;16.20;61.20;;;;;;5094652;28;20024;-61
2023/09/05 03:59:24;;;;;;;5.45;2.67;;;16.20;61.30;;;;;;5090333;28;20051;-60
2023/09/05 04:01:50;;;;;;;3.65;2.42;;;16.20;61.50;;;;;;5089022;28;20031;-61
2023/09/05 04:04:16;;;;;;;3.97;2.40;;;16.20;61.40;;;;;;5092748;28;20036;-62
2023/09/05 04:06:41;;;;;;;4.25;2.53;;;16.20;61.40;;;;;;5088659;27;20537;-61
2023/09/05 04:09:07;;;;;;;4.25;2.63;;;16.30;61.60;;;;;;5106990;27;20379;-61
2023/09/05 04:11:34;;;;;;;3.38;2.50;;;16.30;61.50;;;;;;5096737;27;20023;-62
2023/09/05 04:13:59;;;;;;;3.65;2.67;;;16.30;61.60;;;;;;5112123;27;20023;-61
2023/09/05 04:16:25;;;;;;;4.93;2.80;;;16.40;61.60;;;;;;5112082;27;20031;-62
2023/09/05 04:18:51;;;;;;;3.88;2.75;;;16.40;61.60;;;;;;5112667;27;20114;-61
2023/09/05 04:21:16;;;;;;;4.65;2.78;;;16.40;61.50;;;;;;5109508;27;20073;-61
2023/09/05 04:23:42;;;;;;;5.10;2.50;;;16.40;61.50;;;;;;5115991;27;20062;-61
2023/09/05 04:26:08;;;;;;;4.15;2.83;;;16.50;61.60;;;;;;5090313;28;20059;-62
2023/09/05 04:28:33;;;;;;;3.47;2.15;;;16.50;61.80;;;;;;5109318;27;20090;-61
2023/09/05 04:31:04;;;;;;;3.03;2.42;;;16.60;61.70;;;;;;5098945;27;20059;-61
2023/09/05 04:33:36;;;;;;;4.38;2.33;;;16.60;62.10;;;;;;5113316;27;20454;-63
2023/09/05 04:36:05;;;;;;;2.60;2.33;;;16.60;61.70;;;;;;5101369;27;20032;-62
2023/09/05 04:38:31;;;;;;;4.13;2.45;;;16.60;61.60;;;;;;5108445;27;20028;-62
2023/09/05 04:41:01;;;;;;;4.97;2.42;;;16.70;61.60;;;;;;5092341;28;20478;-61
2023/09/05 04:43:27;;;;;;;3.92;2.67;;;16.70;62.00;;;;;;5111237;27;20087;-60
2023/09/05 04:45:56;;;;;;;2.85;2.40;;;16.70;61.80;;;;;;5108646;27;20035;-62
2023/09/05 04:48:22;;;;;;;4.43;2.53;;;16.60;62.10;;;;;;5112060;27;20030;-62
2023/09/05 04:50:48;;;;;;;3.47;2.35;;;16.70;62.00;;;;;;5107314;28;20031;-61
2023/09/05 04:53:14;;;;;;;3.75;2.33;;;16.70;62.00;;;;;;5111099;27;20043;-61
2023/09/05 04:55:42;;;;;;;4.78;2.97;;;16.70;62.00;;;;;;5107728;27;20031;-60
2023/09/05 04:58:13;;;;;;;3.47;2.30;;;16.70;62.00;;;;;;5109384;27;20035;-61
2023/09/05 05:00:40;;;;;;;3.78;2.60;;;16.80;62.00;;;;;;5109255;27;20102;-62
2023/09/05 05:03:06;;;;;;;5.38;2.58;;;16.80;62.00;;;;;;5075289;27;20039;-61
2023/09/05 05:05:32;;;;;;;5.93;2.90;;;16.80;62.10;;;;;;5086399;27;20031;-62
2023/09/05 05:07:57;;;;;;;6.82;2.55;;;16.80;62.10;;;;;;5102974;27;20052;-62
2023/09/05 05:10:23;;;;;;;7.07;2.83;;;16.80;62.20;;;;;;5108243;27;20016;-61
2023/09/05 05:12:49;;;;;;;3.38;2.63;;;16.80;62.20;;;;;;5101577;28;20032;-61
2023/09/05 05:15:14;;;;;;;3.83;2.50;;;16.90;62.30;;;;;;5088848;28;20130;-61
2023/09/05 05:17:40;;;;;;;7.55;2.17;;;16.90;62.20;;;;;;5109185;27;20040;-62
2023/09/05 05:20:06;;;;;;;3.10;2.20;;;16.90;62.30;;;;;;5103264;27;20030;-60
2023/09/05 05:22:32;;;;;;;4.78;2.30;;;17.00;62.50;;;;;;5109948;27;20080;-61
2023/09/05 05:24:59;;;;;;;3.85;2.30;;;17.00;62.60;;;;;;5099192;27;20038;-63
2023/09/05 05:27:25;;;;;;;3.17;2.30;;;17.10;62.50;;;;;;5056294;27;20652;-60
2023/09/05 05:29:52;;;;;;;4.68;2.80;;;17.20;62.40;;;;;;5090794;28;20042;-62
2023/09/05 05:32:18;;;;;;;3.35;2.08;;;17.20;62.30;;;;;;5108705;27;20072;-62
2023/09/05 05:34:48;;;;;;;6.22;2.45;;;17.30;62.30;;;;;;5106627;28;20035;-61
2023/09/05 05:37:17;;;;;;;2.60;2.25;;;17.40;62.40;;;;;;5109071;27;20031;-61
2023/09/05 05:39:43;;;;;;;4.45;2.50;;;17.50;62.20;;;;;;5111143;27;20027;-61
2023/09/05 05:42:09;;;;;;;5.75;2.30;;;17.50;62.10;;;;;;5117124;27;20649;-61
2023/09/05 05:44:35;;;;;;;2.88;2.28;;;17.60;62.00;;;;;;5111024;27;20015;-61
2023/09/05 05:47:01;;;;;;;2.92;2.40;;;17.70;62.00;;;;;;5106462;28;20124;-61
2023/09/05 05:49:28;;;;;;;4.00;2.40;;;17.80;61.80;;;;;;5119653;27;20139;-62
2023/09/05 05:51:56;;;;;;;4.80;2.58;;;17.90;61.80;;;;;;5110668;27;20015;-62
2023/09/05 05:54:22;;;;;;;3.25;2.30;;;18.00;61.80;;;;;;5105876;28;20031;-61
2023/09/05 05:56:49;;;;;;;3.00;2.10;;;18.00;61.60;;;;;;5102756;27;20027;-62
2023/09/05 05:59:15;;;;;;;4.53;2.50;;;18.10;61.50;;;;;;5098522;28;20383;-62
2023/09/05 06:01:40;;;;;;;3.00;2.00;;;18.20;61.50;;;;;;5105907;27;20030;-61
2023/09/05 06:04:06;;;;;;;3.75;2.63;;;18.30;61.50;;;;;;5108840;27;20035;-62
2023/09/05 06:06:32;;;;;;;3.08;2.10;;;18.30;61.30;;;;;;5100467;27;20040;-62
2023/09/05 06:08:58;;;;;;;4.38;2.35;;;18.40;61.20;;;;;;5084391;28;20024;-60
2023/09/05 06:11:23;;;;;;;4.25;2.50;;;18.50;61.30;;;;;;5078177;28;20081;-61
2023/09/05 06:13:51;;;;;;;2.42;2.13;;;18.50;61.00;;;;;;4998922;28;20384;-61
2023/09/05 06:16:18;;;;;;;5.00;2.40;;;18.60;60.80;;;;;;5082596;28;20012;-61
2023/09/05 06:18:44;;;;;;;3.33;2.10;;;18.90;60.90;;;;;;5082004;28;20040;-62
2023/09/05 06:21:10;;;;;;;2.42;1.92;;;18.80;60.70;;;;;;5082726;28;20035;-62
2023/09/05 06:23:35;;;;;;;3.47;2.10;;;18.90;60.60;;;;;;5090042;28;20486;-62
2023/09/05 06:26:01;;;;;;;3.40;2.10;;;18.90;60.40;;;;;;5082627;28;20691;-62
2023/09/05 06:28:27;;;;;;;2.85;2.00;;;19.00;60.20;;;;;;5066876;28;20032;-61
2023/09/05 06:30:57;;;;;;;2.72;2.13;;;19.10;60.20;;;;;;5082829;28;20042;-60
2023/09/05 06:33:23;;;;;;;3.00;2.00;;;19.20;60.30;;;;;;5085001;28;20031;-62
2023/09/05 06:35:49;;;;;;;3.10;2.00;;;19.30;60.20;;;;;;5085821;28;20032;-61
2023/09/05 06:38:14;;;;;;;2.60;1.92;;;19.30;59.90;;;;;;5084842;28;20035;-61
2023/09/05 06:40:40;;;;;;;2.15;1.80;;;19.40;59.80;;;;;;5084698;28;20034;-61
2023/09/05 06:43:08;;;;;;;4.95;2.13;;;19.50;59.60;;;;;;5079252;28;20039;-62
2023/09/05 06:45:34;;;;;;;2.10;1.90;;;19.60;59.40;;;;;;5094838;28;20047;-62
2023/09/05 06:48:00;;;;;;;3.35;2.00;;;19.60;59.30;;;;;;5087348;28;20020;-61
2023/09/05 06:50:25;;;;;;;3.33;2.00;;;19.70;59.40;;;;;;5096907;28;20026;-61
2023/09/05 06:52:51;;;;;;;2.95;2.17;;;19.80;59.30;;;;;;5092702;28;20184;-62
2023/09/05 06:55:17;;;;;;;7.03;2.78;;;19.80;59.10;;;;;;5089261;28;20032;-62
2023/09/05 06:57:42;;;;;;;2.53;2.08;;;19.90;59.00;;;;;;5091429;28;20031;-61
2023/09/05 07:00:08;;;;;;;2.83;2.25;;;20.00;59.00;;;;;;5085695;28;20124;-61
2023/09/05 07:02:34;;;;;;;2.58;2.13;;;20.10;58.80;;;;;;5081244;28;20024;-61
2023/09/05 07:05:00;;;;;;;3.38;1.98;;;20.10;58.80;;;;;;5091327;28;20023;-61
2023/09/05 07:07:26;;;;;;;3.33;1.95;;;20.20;58.70;;;;;;5089786;28;20056;-61
2023/09/05 07:09:53;;;;;;;3.50;2.50;;;20.30;58.60;;;;;;5084380;28;20063;-61
2023/09/05 07:12:19;;;;;;;3.40;2.50;;;20.40;58.30;;;;;;5090921;28;20111;-61
2023/09/05 07:14:45;;;;;;;4.13;2.60;;;20.40;58.10;;;;;;5084252;28;20526;-61
2023/09/05 07:17:11;;;;;;;4.57;2.50;;;20.60;58.20;;;;;;5078910;28;20031;-61
2023/09/05 07:19:37;;;;;;;4.97;1.75;;;20.60;58.10;;;;;;5080292;28;20102;-62
2023/09/05 07:22:04;;;;;;;6.50;2.28;;;20.70;57.80;;;;;;5066795;28;20475;-61
2023/09/05 07:24:30;;;;;;;3.58;2.35;;;20.80;57.80;;;;;;5081304;28;20337;-62
2023/09/05 07:26:55;;;;;;;4.30;2.83;;;20.90;57.70;;;;;;5084974;28;20075;-61
2023/09/05 07:29:23;;;;;;;6.22;1.98;;;21.00;57.50;;;;;;5087759;28;20024;-61
2023/09/05 07:31:49;;;;;;;3.70;2.15;;;21.10;57.40;;;;;;5087843;28;20658;-61
2023/09/05 07:34:14;;;;;;;4.78;2.28;;;21.20;57.20;;;;;;5086434;28;20063;-61
2023/09/05 07:36:40;;;;;;;3.33;2.10;;;21.30;56.80;;;;;;5071548;28;20122;-61
2023/09/05 07:39:06;;;;;;;7.47;2.25;;;21.30;56.70;;;;;;5089827;28;20028;-61
2023/09/05 07:41:33;;;;;;;4.22;2.50;;;21.40;56.70;;;;;;5097281;28;20051;-61
2023/09/05 07:43:59;;;;;;;2.67;2.00;;;21.50;56.60;;;;;;5090483;28;20123;-62
2023/09/05 07:46:25;;;;;;;3.85;2.47;;;21.50;56.50;;;;;;5083466;28;20063;-61
2023/09/05 07:48:52;;;;;;;4.63;1.98;;;21.60;56.40;;;;;;5082945;28;20052;-61
2023/09/05 07:51:18;;;;;;;2.25;1.85;;;21.70;56.20;;;;;;5088349;28;20044;-61
2023/09/05 07:53:59;;;;;;;4.20;2.60;;;21.80;56.20;;;;;;5082934;28;20115;-61
2023/09/05 07:56:26;;;;;;;4.28;2.35;;;21.80;56.00;;;;;;5082376;28;20020;-61
2023/09/05 07:58:51;;;;;;;3.50;2.10;;;22.00;56.00;;;;;;5090291;28;20639;-62
2023/09/05 08:01:19;;;;;;;5.55;2.22;;;22.00;55.90;;;;;;5081395;28;20024;-61
2023/09/05 08:03:47;;;;;;;3.58;2.33;;;22.10;55.80;;;;;;5086683;28;20372;-61
2023/09/05 08:06:13;;;;;;;3.15;2.20;;;22.20;56.20;;;;;;5077692;28;20806;-62
2023/09/05 08:08:39;;;;;;;2.45;2.20;;;22.30;55.60;;;;;;5101626;28;20050;-62
2023/09/05 08:11:04;;;;;;;3.78;2.40;;;22.50;55.80;;;;;;5105234;28;20019;-61
2023/09/05 08:13:30;;;;;;;4.53;2.20;;;22.60;55.20;;;;;;5020457;27;20024;-62
2023/09/05 08:15:56;;;;;;;3.55;2.08;;;22.70;55.00;;;;;;5102146;28;20413;-61
2023/09/05 08:18:21;;;;;;;2.10;1.83;;;22.80;54.80;;;;;;5105217;28;20084;-62
2023/09/05 08:20:47;;;;;;;2.83;2.00;;;22.90;54.40;;;;;;5081923;28;20503;-62
2023/09/05 08:23:13;;;;;;;6.57;2.65;;;23.00;54.40;;;;;;5103945;28;20457;-61
2023/09/05 08:25:39;;;;;;;2.97;2.13;;;23.00;54.10;;;;;;5100350;28;20039;-62
2023/09/05 08:28:05;;;;;;;5.65;1.77;;;23.10;53.90;;;;;;5097856;28;20419;-62
2023/09/05 08:30:31;;;;;;;4.28;2.10;;;23.10;53.90;;;;;;5101070;28;20055;-62
2023/09/05 08:33:01;;;;;;;5.88;1.90;;;23.20;53.90;;;;;;5104794;28;20062;-63
2023/09/05 08:35:27;;;;;;;5.28;2.00;;;23.30;53.70;;;;;;5096857;27;20374;-61
2023/09/05 08:37:53;;;;;;;3.85;2.22;;;23.30;53.70;;;;;;5105025;27;20031;-62
2023/09/05 08:40:20;;;;;;;4.80;2.15;;;23.40;53.50;;;;;;5101023;28;20082;-62
2023/09/05 08:42:49;;;;;;;6.05;1.98;;;23.40;53.20;;;;;;5090144;28;20477;-62
2023/09/05 08:45:20;;;;;;;3.72;2.00;;;23.50;53.40;;;;;;5104835;27;20401;-61
2023/09/05 08:47:46;;;;;;;4.00;2.10;;;23.60;53.20;;;;;;5105477;27;20102;-60
2023/09/05 08:50:13;;;;;;;2.60;1.80;;;23.70;53.20;;;;;;5104955;28;20107;-62
2023/09/05 08:52:40;;;;;;;4.85;2.50;;;23.80;53.20;;;;;;5102109;28;20046;-62
2023/09/05 08:55:07;;;;;;;5.55;2.17;;;23.90;53.00;;;;;;5101966;28;20048;-61
2023/09/05 08:57:35;;;;;;;4.55;2.00;;;24.00;52.50;;;;;;5100577;27;20053;-60
2023/09/05 09:00:08;;;;;;;2.35;2.08;;;24.10;52.40;;;;;;5104686;28;20023;-61
2023/09/05 09:02:37;;;;;;;3.13;1.80;;;24.20;52.00;;;;;;5098308;28;20023;-61
2023/09/05 09:05:03;;;;;;;4.53;2.38;;;24.20;51.60;;;;;;5115258;27;20030;-61
2023/09/05 09:07:29;;;;;;;2.50;1.98;;;24.30;51.90;;;;;;5097303;27;20052;-61
2023/09/05 09:09:57;;;;;;;5.68;2.22;;;24.40;51.90;;;;;;5083494;28;20032;-62
2023/09/05 09:12:30;;;;;;;3.33;1.98;;;24.50;51.70;;;;;;5029959;28;21000;-61
2023/09/05 09:15:12;;;;;;;2.63;1.67;;;24.50;51.30;;;;;;5084549;28;20016;-61
2023/09/05 09:17:42;;;;;;;2.80;1.70;;;24.60;51.80;;;;;;5077069;28;20028;-62
2023/09/05 09:20:12;;;;;;;5.10;1.92;;;24.70;51.50;;;;;;5077181;28;20845;-61
2023/09/05 09:22:42;;;;;;;3.10;1.80;;;24.80;51.40;;;;;;5082644;28;20028;-61
2023/09/05 09:25:20;;;;;;;7.05;1.88;;;24.90;51.20;;;;;;5079915;28;20077;-61
2023/09/05 09:27:53;;;;;;;3.72;1.60;;;25.00;50.90;;;;;;5074375;28;20040;-62
2023/09/05 09:30:23;;;;;;;3.33;1.70;;;25.10;50.50;;;;;;5082475;28;20028;-61
2023/09/05 09:32:51;;;;;;;2.17;1.67;;;25.20;50.70;;;;;;5066764;28;20122;-61
2023/09/05 09:35:17;;;;;;;5.82;2.15;;;25.30;50.80;;;;;;5081290;28;20060;-62
2023/09/05 09:37:46;;;;;;;6.20;2.13;;;25.40;51.30;;;;;;5078862;28;20092;-60
2023/09/05 09:40:12;;;;;;;3.42;1.85;;;25.50;50.20;;;;;;5072916;28;20092;-61
2023/09/05 09:42:38;;;;;;;4.80;2.03;;;25.60;50.30;;;;;;5089536;28;20031;-63
2023/09/05 09:45:08;;;;;;;4.95;1.75;;;25.70;49.90;;;;;;5082755;28;20020;-62
2023/09/05 09:47:38;;;;;;;4.07;1.80;;;25.70;50.10;;;;;;5083543;28;20036;-61
2023/09/05 09:50:04;;;;;;;3.50;2.50;;;25.80;49.80;;;;;;5080260;28;20120;-62
2023/09/05 09:52:34;;;;;;;2.58;1.83;;;25.90;49.50;;;;;;5080854;28;20529;-62
2023/09/05 09:55:03;;;;;;;5.80;2.08;;;26.00;49.70;;;;;;5079682;28;20023;-62
2023/09/05 09:57:38;;;;;;;3.05;1.80;;;26.10;49.60;;;;;;5076338;28;20154;-62
2023/09/05 10:00:15;;;;;;;2.38;1.80;;;26.10;48.90;;;;;;5077556;28;20028;-61
2023/09/05 10:02:43;;;;;;;10.40;1.90;;;26.20;49.30;;;;;;5079778;28;20505;-63
2023/09/05 10:05:10;;;;;;;3.10;1.60;;;26.30;49.20;;;;;;5077924;28;20048;-61
2023/09/05 10:07:37;;;;;;;4.30;1.88;;;26.40;49.20;;;;;;5086236;28;20050;-62
2023/09/05 10:10:04;;;;;;;2.40;1.88;;;26.50;49.30;;;;;;5083879;28;20036;-61
2023/09/05 10:12:31;;;;;;;2.42;1.50;;;26.60;48.90;;;;;;4999443;28;20072;-61
2023/09/05 10:14:58;;;;;;;2.72;1.77;;;26.60;48.90;;;;;;5087430;28;20020;-61
2023/09/05 10:17:26;;;;;;;1.88;1.55;;;26.70;49.10;;;;;;5082103;28;20172;-61
2023/09/05 10:19:53;;;;;;;6.57;1.77;;;26.80;48.90;;;;;;5086472;28;20024;-61
2023/09/05 10:22:21;;;;;;;4.95;1.60;;;26.90;48.90;;;;;;5088926;28;20066;-61
2023/09/05 10:24:47;;;;;;;3.05;1.75;;;27.00;48.50;;;;;;5081969;28;20028;-61
2023/09/05 10:27:13;;;;;;;2.70;1.67;;;27.10;48.60;;;;;;5087843;28;20474;-62
2023/09/05 10:29:44;;;;;;;1.85;1.60;;;27.10;48.10;;;;;;5094908;28;20038;-61
2023/09/05 10:32:14;;;;;;;4.00;1.40;;;27.20;47.50;;;;;;5092036;28;20024;-63
2023/09/05 10:34:50;;;;;;;3.22;1.58;;;27.30;47.70;;;;;;5089906;28;20408;-61
2023/09/05 10:37:21;;;;;;;2.58;1.83;;;27.30;47.20;;;;;;5091527;28;20333;-61
2023/09/05 10:39:55;;;;;;;2.28;1.40;;;27.40;47.40;;;;;;5088159;28;20415;-62
2023/09/05 10:42:31;;;;;;;5.07;1.80;;;27.40;47.30;;;;;;5087080;28;20043;-61
2023/09/05 10:45:16;;;;;;;2.70;1.48;;;27.50;47.10;;;;;;5091511;28;20027;-62
2023/09/05 10:47:41;;;;;;;4.18;1.60;;;27.50;47.60;;;;;;5085927;28;20063;-62
2023/09/05 10:50:09;;;;;;;5.05;1.60;;;27.60;46.20;;;;;;5086685;28;20067;-62
2023/09/05 10:52:36;;;;;;;2.03;1.73;;;27.60;46.30;;;;;;5086847;28;20093;-64
2023/09/05 10:55:30;;;;;;;2.05;1.42;;;27.60;46.70;;;;;;5083546;28;20120;-62
2023/09/05 10:57:56;;;;;;;3.20;1.77;;;27.60;46.40;;;;;;5082372;28;20027;-62
2023/09/05 11:00:28;;;;;;;4.03;1.85;;;27.70;46.90;;;;;;5089188;28;20030;-61
2023/09/05 11:02:55;;;;;;;6.15;1.40;;;27.70;45.60;;;;;;5084671;28;20093;-61
2023/09/05 11:05:25;;;;;;;5.00;1.42;;;27.70;46.00;;;;;;5080177;28;20027;-63
2023/09/05 11:07:54;;;;;;;2.65;1.38;;;27.70;46.10;;;;;;5102256;28;20051;-63
2023/09/05 11:10:33;;;;;;;5.93;1.45;;;27.80;46.70;;;;;;5109551;27;20110;-62
2023/09/05 11:13:12;;;;;;;1.95;1.58;;;27.80;46.50;;;;;;5104061;27;20053;-62
2023/09/05 11:15:43;;;;;;;5.20;1.75;;;27.90;47.00;;;;;;5105526;27;20080;-62
2023/09/05 11:18:11;;;;;;;1.90;1.35;;;28.00;46.60;;;;;;5104927;27;20024;-62
2023/09/05 11:20:42;;;;;;;4.10;1.58;;;28.00;46.20;;;;;;5097670;27;20031;-62
2023/09/05 11:23:16;;;;;;;6.28;1.40;;;28.10;45.20;;;;;;5103795;28;20027;-61
2023/09/05 11:25:42;;;;;;;1.35;1.25;;;28.10;45.10;;;;;;5108144;27;20035;-62
2023/09/05 11:28:08;;;;;;;1.92;1.30;;;28.20;45.40;;;;;;5103378;28;20032;-62
2023/09/05 11:30:42;;;;;;;1.80;1.40;;;28.20;44.90;;;;;;5105587;27;20066;-63
2023/09/05 11:33:09;;;;;;;2.75;1.30;;;28.30;45.00;;;;;;5099956;28;20031;-61
2023/09/05 11:35:35;;;;;;;6.10;1.70;;;28.30;45.30;;;;;;5108467;27;20543;-62
2023/09/05 11:38:04;;;;;;;3.20;1.48;;;28.40;45.40;;;;;;5104905;27;20402;-62
2023/09/05 11:40:30;;;;;;;2.75;1.40;;;28.50;45.00;;;;;;5114620;27;20026;-62
2023/09/05 11:43:10;;;;;;;1.83;1.30;;;28.50;45.00;;;;;;5108954;27;20407;-61
2023/09/05 11:45:37;;;;;;;1.65;1.40;;;28.60;45.20;;;;;;5105642;27;20044;-61
2023/09/05 11:48:11;;;;;;;2.28;1.23;;;28.70;45.00;;;;;;5100998;28;20024;-62
2023/09/05 11:50:39;;;;;;;;;;;28.80;45.10;;;;;;5105351;27;20031;-62
2023/09/05 11:53:10;;;;;;;1.90;1.50;;;28.90;41.90;;;;;;5088760;28;19908;-61
2023/09/05 11:55:36;;;;;;;1.33;1.23;;;28.90;44.90;;;;;;5099712;27;20072;-61
2023/09/05 11:58:04;;;;;;;3.92;1.25;;;29.00;44.40;;;;;;5099681;27;20470;-63
2023/09/05 12:00:32;;;;;;;3.58;1.13;;;29.10;44.50;;;;;;5107206;27;20069;-62
2023/09/05 12:03:00;;;;;;;1.98;1.50;;;29.10;44.30;;;;;;5110357;27;20020;-64
2023/09/05 12:05:26;;;;;;;2.08;1.27;;;29.20;43.40;;;;;;5100119;28;20027;-61
2023/09/05 12:07:55;;;;;;;4.53;1.50;;;29.20;43.90;;;;;;5103603;28;20086;-63
2023/09/05 12:10:26;;;;;;;1.90;1.30;;;29.20;43.70;;;;;;5108563;27;20690;-63
2023/09/05 12:12:58;;;;;;;1.48;1.38;;;29.20;43.50;;;;;;5103707;27;20083;-62
2023/09/05 12:15:32;;;;;;;2.28;1.38;;;29.30;43.20;;;;;;5113574;27;20031;-62
2023/09/05 12:17:59;;;;;;;1.73;1.23;;;29.30;43.00;;;;;;5101686;27;20036;-61
2023/09/05 12:20:26;;;;;;;1.58;1.20;;;29.40;43.70;;;;;;5087364;28;20028;-62
2023/09/05 12:22:52;;;;;;;3.13;1.40;;;29.50;43.20;;;;;;5102566;27;20020;-62
2023/09/05 12:25:19;;;;;;;1.95;1.38;;;29.60;43.10;;;;;;5108479;27;20513;-62
2023/09/05 12:27:49;;;;;;;1.83;1.30;;;29.60;43.40;;;;;;5109377;27;20019;-61
2023/09/05 12:30:36;;;;;;;2.42;1.30;;;29.70;42.70;;;;;;5104606;28;20035;-61
2023/09/05 12:33:03;;;;;;;1.10;1.00;;;29.80;42.70;;;;;;5104203;27;20047;-62
2023/09/05 12:35:31;;;;;;;1.42;1.10;;;29.80;42.50;;;;;;5107019;27;20023;-61
2023/09/05 12:37:59;;;;;;;2.80;1.33;;;29.90;41.90;;;;;;5113196;27;20028;-61
2023/09/05 12:40:25;;;;;;;2.78;1.20;;;29.90;41.70;;;;;;5103511;27;20028;-61
2023/09/05 12:42:51;;;;;;;3.45;1.33;;;30.00;41.40;;;;;;5085520;28;20031;-62
2023/09/05 12:45:18;;;;;;;1.70;1.10;;;30.00;41.60;;;;;;5041803;27;20031;-61
2023/09/05 12:47:45;;;;;;;1.75;1.00;;;30.10;41.70;;;;;;5093524;28;20443;-62
2023/09/05 12:50:12;;;;;;;1.40;1.10;;;30.20;41.90;;;;;;5105892;27;20035;-63